sensor_id;sensor_type;location;lat;lon;timestamp;P1;durP1;ratioP1;P2;durP2;ratioP2
59876;SDS011;45749;51.140;17.184;2022-09-21T00:01:03;4.58;;;3.02;;
59876;SDS011;45749;51.140;17.184;2022-09-21T00:03:39;6.78;;;3.62;;
59876;SDS011;45749;51.140;17.184;2022-09-21T00:06:16;5.65;;;3.75;;
59876;SDS011;45749;51.140;17.184;2022-09-21T00:08:40;4.55;;;2.52;;
59876;SDS011;45749;51.140;17.184;2022-09-21T00:11:10;5.65;;;2.77;;
59876;SDS011;45749;51.140;17.184;2022-09-21T00:13:41;4.37;;;3.10;;
59876;SDS011;45749;51.140;17.184;2022-09-21T00:16:08;4.78;;;2.98;;
59876;SDS011;45749;51.140;17.184;2022-09-21T00:18:34;3.33;;;2.62;;
59876;SDS011;45749;51.140;17.184;2022-09-21T00:21:06;5.08;;;3.58;;
59876;SDS011;45749;51.140;17.184;2022-09-21T00:23:35;4.25;;;2.92;;
59876;SDS011;45749;51.140;17.184;2022-09-21T00:26:16;7.90;;;5.30;;
59876;SDS011;45749;51.140;17.184;2022-09-21T00:28:44;7.75;;;3.30;;
59876;SDS011;45749;51.140;17.184;2022-09-21T00:31:12;6.28;;;3.52;;
59876;SDS011;45749;51.140;17.184;2022-09-21T00:33:42;6.22;;;3.58;;
59876;SDS011;45749;51.140;17.184;2022-09-21T00:36:09;4.58;;;3.42;;
59876;SDS011;45749;51.140;17.184;2022-09-21T00:38:38;5.37;;;3.12;;
59876;SDS011;45749;51.140;17.184;2022-09-21T00:41:05;6.75;;;3.70;;
59876;SDS011;45749;51.140;17.184;2022-09-21T00:43:33;6.28;;;3.80;;
59876;SDS011;45749;51.140;17.184;2022-09-21T00:46:10;6.87;;;3.08;;
59876;SDS011;45749;51.140;17.184;2022-09-21T00:48:54;7.67;;;3.83;;
59876;SDS011;45749;51.140;17.184;2022-09-21T00:51:21;5.97;;;3.62;;
59876;SDS011;45749;51.140;17.184;2022-09-21T00:53:48;6.20;;;3.30;;
59876;SDS011;45749;51.140;17.184;2022-09-21T00:56:18;6.65;;;3.47;;
59876;SDS011;45749;51.140;17.184;2022-09-21T00:58:45;6.37;;;4.10;;
59876;SDS011;45749;51.140;17.184;2022-09-21T01:01:14;6.33;;;3.40;;
59876;SDS011;45749;51.140;17.184;2022-09-21T01:03:42;4.62;;;3.30;;
59876;SDS011;45749;51.140;17.184;2022-09-21T01:06:11;5.35;;;3.77;;
59876;SDS011;45749;51.140;17.184;2022-09-21T01:08:39;6.70;;;3.33;;
59876;SDS011;45749;51.140;17.184;2022-09-21T01:17:08;5.67;;;3.85;;
59876;SDS011;45749;51.140;17.184;2022-09-21T01:34:48;5.50;;;3.90;;
59876;SDS011;45749;51.140;17.184;2022-09-21T01:37:43;5.45;;;3.27;;
59876;SDS011;45749;51.140;17.184;2022-09-21T01:40:17;5.40;;;3.80;;
59876;SDS011;45749;51.140;17.184;2022-09-21T01:42:48;5.40;;;3.33;;
59876;SDS011;45749;51.140;17.184;2022-09-21T01:45:18;6.30;;;3.45;;
59876;SDS011;45749;51.140;17.184;2022-09-21T01:47:48;4.90;;;3.55;;
59876;SDS011;45749;51.140;17.184;2022-09-21T01:50:16;5.40;;;3.77;;
59876;SDS011;45749;51.140;17.184;2022-09-21T01:52:46;6.72;;;3.67;;
59876;SDS011;45749;51.140;17.184;2022-09-21T01:55:23;5.12;;;3.70;;
59876;SDS011;45749;51.140;17.184;2022-09-21T02:01:14;6.30;;;4.80;;
59876;SDS011;45749;51.140;17.184;2022-09-21T02:03:45;6.70;;;4.15;;
59876;SDS011;45749;51.140;17.184;2022-09-21T02:06:15;6.25;;;5.20;;
59876;SDS011;45749;51.140;17.184;2022-09-21T02:08:43;6.67;;;4.50;;
59876;SDS011;45749;51.140;17.184;2022-09-21T02:11:11;6.95;;;4.75;;
59876;SDS011;45749;51.140;17.184;2022-09-21T02:13:38;8.63;;;5.42;;
59876;SDS011;45749;51.140;17.184;2022-09-21T02:24:42;10.72;;;5.60;;
59876;SDS011;45749;51.140;17.184;2022-09-21T02:29:54;8.83;;;6.05;;
59876;SDS011;45749;51.140;17.184;2022-09-21T02:35:38;8.25;;;4.97;;
59876;SDS011;45749;51.140;17.184;2022-09-21T02:41:24;8.50;;;5.72;;
59876;SDS011;45749;51.140;17.184;2022-09-21T02:44:19;7.83;;;5.50;;
59876;SDS011;45749;51.140;17.184;2022-09-21T02:47:00;10.48;;;6.12;;
59876;SDS011;45749;51.140;17.184;2022-09-21T02:49:40;8.98;;;5.83;;
59876;SDS011;45749;51.140;17.184;2022-09-21T02:52:11;9.65;;;6.70;;
59876;SDS011;45749;51.140;17.184;2022-09-21T02:54:39;12.95;;;6.28;;
59876;SDS011;45749;51.140;17.184;2022-09-21T02:57:10;9.05;;;6.90;;
59876;SDS011;45749;51.140;17.184;2022-09-21T02:59:37;10.78;;;6.50;;
59876;SDS011;45749;51.140;17.184;2022-09-21T03:02:04;10.63;;;6.47;;
59876;SDS011;45749;51.140;17.184;2022-09-21T03:04:31;9.38;;;6.55;;
59876;SDS011;45749;51.140;17.184;2022-09-21T03:06:58;11.40;;;8.20;;
59876;SDS011;45749;51.140;17.184;2022-09-21T03:09:23;10.72;;;7.67;;
59876;SDS011;45749;51.140;17.184;2022-09-21T03:11:49;8.38;;;6.78;;
59876;SDS011;45749;51.140;17.184;2022-09-21T03:14:16;9.85;;;6.90;;
59876;SDS011;45749;51.140;17.184;2022-09-21T03:16:43;8.58;;;6.70;;
59876;SDS011;45749;51.140;17.184;2022-09-21T03:19:10;12.82;;;7.25;;
59876;SDS011;45749;51.140;17.184;2022-09-21T03:21:36;9.20;;;7.15;;
59876;SDS011;45749;51.140;17.184;2022-09-21T03:24:03;9.45;;;7.45;;
59876;SDS011;45749;51.140;17.184;2022-09-21T03:26:29;8.10;;;7.22;;
59876;SDS011;45749;51.140;17.184;2022-09-21T03:28:55;9.90;;;7.60;;
59876;SDS011;45749;51.140;17.184;2022-09-21T03:31:21;11.33;;;8.03;;
59876;SDS011;45749;51.140;17.184;2022-09-21T03:33:47;11.25;;;6.78;;
59876;SDS011;45749;51.140;17.184;2022-09-21T03:36:12;10.50;;;8.70;;
59876;SDS011;45749;51.140;17.184;2022-09-21T03:38:38;11.80;;;8.48;;
59876;SDS011;45749;51.140;17.184;2022-09-21T03:41:05;10.03;;;8.35;;
59876;SDS011;45749;51.140;17.184;2022-09-21T03:43:31;11.68;;;8.20;;
59876;SDS011;45749;51.140;17.184;2022-09-21T03:45:57;10.08;;;8.00;;
59876;SDS011;45749;51.140;17.184;2022-09-21T03:48:23;10.93;;;8.13;;
59876;SDS011;45749;51.140;17.184;2022-09-21T03:50:49;13.30;;;7.80;;
59876;SDS011;45749;51.140;17.184;2022-09-21T03:53:15;10.80;;;8.15;;
59876;SDS011;45749;51.140;17.184;2022-09-21T03:55:41;11.10;;;8.43;;
59876;SDS011;45749;51.140;17.184;2022-09-21T03:58:08;9.80;;;7.05;;
59876;SDS011;45749;51.140;17.184;2022-09-21T04:00:34;11.55;;;8.23;;
59876;SDS011;45749;51.140;17.184;2022-09-21T04:03:00;10.95;;;7.92;;
59876;SDS011;45749;51.140;17.184;2022-09-21T04:05:27;11.60;;;8.55;;
59876;SDS011;45749;51.140;17.184;2022-09-21T04:07:53;12.03;;;7.78;;
59876;SDS011;45749;51.140;17.184;2022-09-21T04:10:20;13.40;;;8.55;;
59876;SDS011;45749;51.140;17.184;2022-09-21T04:12:50;12.80;;;8.33;;
59876;SDS011;45749;51.140;17.184;2022-09-21T04:15:17;12.80;;;8.23;;
59876;SDS011;45749;51.140;17.184;2022-09-21T04:17:48;10.38;;;7.85;;
59876;SDS011;45749;51.140;17.184;2022-09-21T04:20:17;9.55;;;7.12;;
59876;SDS011;45749;51.140;17.184;2022-09-21T04:22:44;14.03;;;7.92;;
59876;SDS011;45749;51.140;17.184;2022-09-21T04:25:12;14.65;;;7.92;;
59876;SDS011;45749;51.140;17.184;2022-09-21T04:27:38;11.68;;;8.70;;
59876;SDS011;45749;51.140;17.184;2022-09-21T04:30:05;12.50;;;8.25;;
59876;SDS011;45749;51.140;17.184;2022-09-21T04:32:33;13.93;;;8.68;;
59876;SDS011;45749;51.140;17.184;2022-09-21T04:34:59;11.48;;;8.03;;
59876;SDS011;45749;51.140;17.184;2022-09-21T04:37:24;14.18;;;8.08;;
59876;SDS011;45749;51.140;17.184;2022-09-21T04:39:51;9.73;;;8.15;;
59876;SDS011;45749;51.140;17.184;2022-09-21T04:42:18;16.70;;;9.55;;
59876;SDS011;45749;51.140;17.184;2022-09-21T04:44:43;12.23;;;7.97;;
59876;SDS011;45749;51.140;17.184;2022-09-21T04:47:09;16.75;;;8.10;;
59876;SDS011;45749;51.140;17.184;2022-09-21T04:49:36;12.35;;;8.45;;
59876;SDS011;45749;51.140;17.184;2022-09-21T04:52:05;12.47;;;9.25;;
59876;SDS011;45749;51.140;17.184;2022-09-21T04:54:31;12.10;;;8.83;;
59876;SDS011;45749;51.140;17.184;2022-09-21T04:56:57;13.50;;;9.50;;
59876;SDS011;45749;51.140;17.184;2022-09-21T04:59:23;15.68;;;9.80;;
59876;SDS011;45749;51.140;17.184;2022-09-21T05:01:49;15.23;;;9.63;;
59876;SDS011;45749;51.140;17.184;2022-09-21T05:04:15;16.05;;;10.98;;
59876;SDS011;45749;51.140;17.184;2022-09-21T05:06:41;13.40;;;9.40;;
59876;SDS011;45749;51.140;17.184;2022-09-21T05:09:07;13.75;;;10.03;;
59876;SDS011;45749;51.140;17.184;2022-09-21T05:11:51;18.07;;;10.55;;
59876;SDS011;45749;51.140;17.184;2022-09-21T05:14:18;17.23;;;11.90;;
59876;SDS011;45749;51.140;17.184;2022-09-21T05:16:44;13.10;;;9.65;;
59876;SDS011;45749;51.140;17.184;2022-09-21T05:19:12;13.95;;;10.00;;
59876;SDS011;45749;51.140;17.184;2022-09-21T05:21:37;15.65;;;9.38;;
59876;SDS011;45749;51.140;17.184;2022-09-21T05:24:03;13.68;;;10.38;;
59876;SDS011;45749;51.140;17.184;2022-09-21T05:26:30;16.90;;;11.05;;
59876;SDS011;45749;51.140;17.184;2022-09-21T05:28:56;19.90;;;12.73;;
59876;SDS011;45749;51.140;17.184;2022-09-21T05:31:29;18.70;;;11.60;;
59876;SDS011;45749;51.140;17.184;2022-09-21T05:34:16;17.20;;;10.80;;
59876;SDS011;45749;51.140;17.184;2022-09-21T05:40:00;16.95;;;11.35;;
59876;SDS011;45749;51.140;17.184;2022-09-21T05:42:27;18.32;;;12.15;;
59876;SDS011;45749;51.140;17.184;2022-09-21T05:44:54;16.52;;;11.63;;
59876;SDS011;45749;51.140;17.184;2022-09-21T05:53:41;14.63;;;9.08;;
59876;SDS011;45749;51.140;17.184;2022-09-21T05:55:55;12.18;;;9.38;;
59876;SDS011;45749;51.140;17.184;2022-09-21T05:58:31;10.90;;;8.15;;
59876;SDS011;45749;51.140;17.184;2022-09-21T06:01:29;13.00;;;9.90;;
59876;SDS011;45749;51.140;17.184;2022-09-21T06:04:25;11.83;;;9.18;;
59876;SDS011;45749;51.140;17.184;2022-09-21T06:06:52;14.25;;;10.23;;
59876;SDS011;45749;51.140;17.184;2022-09-21T06:09:18;13.38;;;9.73;;
59876;SDS011;45749;51.140;17.184;2022-09-21T06:11:45;15.23;;;10.35;;
59876;SDS011;45749;51.140;17.184;2022-09-21T06:14:11;12.15;;;10.18;;
59876;SDS011;45749;51.140;17.184;2022-09-21T06:16:38;15.28;;;9.98;;
59876;SDS011;45749;51.140;17.184;2022-09-21T06:19:06;11.05;;;7.95;;
59876;SDS011;45749;51.140;17.184;2022-09-21T06:21:37;12.60;;;8.88;;
59876;SDS011;45749;51.140;17.184;2022-09-21T06:24:03;13.03;;;9.60;;
59876;SDS011;45749;51.140;17.184;2022-09-21T06:26:29;12.78;;;9.48;;
59876;SDS011;45749;51.140;17.184;2022-09-21T06:28:55;14.65;;;10.43;;
59876;SDS011;45749;51.140;17.184;2022-09-21T06:31:21;13.35;;;9.78;;
59876;SDS011;45749;51.140;17.184;2022-09-21T06:33:47;15.45;;;10.50;;
59876;SDS011;45749;51.140;17.184;2022-09-21T06:36:13;12.95;;;9.28;;
59876;SDS011;45749;51.140;17.184;2022-09-21T06:38:40;12.30;;;9.75;;
59876;SDS011;45749;51.140;17.184;2022-09-21T06:41:06;12.30;;;9.00;;
59876;SDS011;45749;51.140;17.184;2022-09-21T06:43:32;12.65;;;9.33;;
59876;SDS011;45749;51.140;17.184;2022-09-21T06:45:58;12.63;;;9.25;;
59876;SDS011;45749;51.140;17.184;2022-09-21T06:48:27;11.85;;;7.62;;
59876;SDS011;45749;51.140;17.184;2022-09-21T06:50:57;9.38;;;6.78;;
59876;SDS011;45749;51.140;17.184;2022-09-21T06:53:30;8.45;;;6.50;;
59876;SDS011;45749;51.140;17.184;2022-09-21T06:56:05;7.87;;;6.50;;
59876;SDS011;45749;51.140;17.184;2022-09-21T06:58:33;8.38;;;6.78;;
59876;SDS011;45749;51.140;17.184;2022-09-21T07:01:04;9.00;;;6.40;;
59876;SDS011;45749;51.140;17.184;2022-09-21T07:03:35;7.65;;;6.75;;
59876;SDS011;45749;51.140;17.184;2022-09-21T07:06:01;7.30;;;5.80;;
59876;SDS011;45749;51.140;17.184;2022-09-21T07:08:28;8.80;;;6.87;;
59876;SDS011;45749;51.140;17.184;2022-09-21T07:10:58;9.33;;;7.17;;
59876;SDS011;45749;51.140;17.184;2022-09-21T07:13:26;8.00;;;6.55;;
59876;SDS011;45749;51.140;17.184;2022-09-21T07:15:52;8.25;;;6.28;;
59876;SDS011;45749;51.140;17.184;2022-09-21T07:18:18;10.40;;;7.47;;
59876;SDS011;45749;51.140;17.184;2022-09-21T07:20:45;10.20;;;6.65;;
59876;SDS011;45749;51.140;17.184;2022-09-21T07:23:15;10.20;;;7.72;;
59876;SDS011;45749;51.140;17.184;2022-09-21T07:25:44;11.10;;;7.47;;
59876;SDS011;45749;51.140;17.184;2022-09-21T07:28:17;10.13;;;7.42;;
59876;SDS011;45749;51.140;17.184;2022-09-21T07:30:43;9.70;;;8.20;;
59876;SDS011;45749;51.140;17.184;2022-09-21T07:33:09;8.58;;;6.62;;
59876;SDS011;45749;51.140;17.184;2022-09-21T07:35:35;11.05;;;6.92;;
59876;SDS011;45749;51.140;17.184;2022-09-21T07:38:03;10.68;;;7.58;;
59876;SDS011;45749;51.140;17.184;2022-09-21T07:40:31;10.63;;;7.37;;
59876;SDS011;45749;51.140;17.184;2022-09-21T07:42:59;9.60;;;7.90;;
59876;SDS011;45749;51.140;17.184;2022-09-21T07:45:27;10.65;;;7.42;;
59876;SDS011;45749;51.140;17.184;2022-09-21T07:47:55;12.75;;;9.03;;
59876;SDS011;45749;51.140;17.184;2022-09-21T07:50:29;11.80;;;8.93;;
59876;SDS011;45749;51.140;17.184;2022-09-21T07:52:58;11.20;;;8.98;;
59876;SDS011;45749;51.140;17.184;2022-09-21T07:55:25;15.25;;;10.38;;
59876;SDS011;45749;51.140;17.184;2022-09-21T07:57:52;13.93;;;9.53;;
59876;SDS011;45749;51.140;17.184;2022-09-21T08:00:36;14.28;;;9.45;;
59876;SDS011;45749;51.140;17.184;2022-09-21T08:03:03;14.00;;;9.55;;
59876;SDS011;45749;51.140;17.184;2022-09-21T08:05:30;11.00;;;9.30;;
59876;SDS011;45749;51.140;17.184;2022-09-21T08:07:57;11.93;;;8.35;;
59876;SDS011;45749;51.140;17.184;2022-09-21T08:10:23;10.55;;;8.45;;
59876;SDS011;45749;51.140;17.184;2022-09-21T08:12:52;12.18;;;9.53;;
59876;SDS011;45749;51.140;17.184;2022-09-21T08:15:19;10.78;;;8.80;;
59876;SDS011;45749;51.140;17.184;2022-09-21T08:17:45;10.65;;;7.78;;
59876;SDS011;45749;51.140;17.184;2022-09-21T08:20:11;12.23;;;8.78;;
59876;SDS011;45749;51.140;17.184;2022-09-21T08:22:38;11.28;;;7.87;;
59876;SDS011;45749;51.140;17.184;2022-09-21T08:25:05;14.23;;;8.93;;
59876;SDS011;45749;51.140;17.184;2022-09-21T08:27:31;9.98;;;8.45;;
59876;SDS011;45749;51.140;17.184;2022-09-21T08:29:57;10.35;;;8.25;;
59876;SDS011;45749;51.140;17.184;2022-09-21T08:32:23;11.25;;;7.85;;
59876;SDS011;45749;51.140;17.184;2022-09-21T08:34:49;17.37;;;9.88;;
59876;SDS011;45749;51.140;17.184;2022-09-21T08:37:15;9.05;;;7.90;;
59876;SDS011;45749;51.140;17.184;2022-09-21T08:39:41;10.70;;;7.62;;
59876;SDS011;45749;51.140;17.184;2022-09-21T08:44:51;10.48;;;9.05;;
59876;SDS011;45749;51.140;17.184;2022-09-21T08:47:31;11.55;;;9.60;;
59876;SDS011;45749;51.140;17.184;2022-09-21T08:50:19;9.13;;;8.10;;
59876;SDS011;45749;51.140;17.184;2022-09-21T08:53:09;12.00;;;9.45;;
59876;SDS011;45749;51.140;17.184;2022-09-21T08:55:44;11.43;;;9.00;;
59876;SDS011;45749;51.140;17.184;2022-09-21T08:58:26;11.65;;;10.45;;
59876;SDS011;45749;51.140;17.184;2022-09-21T09:04:03;12.68;;;9.83;;
59876;SDS011;45749;51.140;17.184;2022-09-21T09:09:53;10.30;;;9.15;;
59876;SDS011;45749;51.140;17.184;2022-09-21T09:12:41;12.40;;;8.80;;
59876;SDS011;45749;51.140;17.184;2022-09-21T09:18:53;10.45;;;8.35;;
59876;SDS011;45749;51.140;17.184;2022-09-21T09:21:40;8.85;;;7.85;;
59876;SDS011;45749;51.140;17.184;2022-09-21T09:24:07;9.78;;;7.40;;
59876;SDS011;45749;51.140;17.184;2022-09-21T09:26:46;8.60;;;7.05;;
59876;SDS011;45749;51.140;17.184;2022-09-21T09:32:03;9.25;;;7.75;;
59876;SDS011;45749;51.140;17.184;2022-09-21T09:34:34;8.03;;;6.70;;
59876;SDS011;45749;51.140;17.184;2022-09-21T09:37:11;10.28;;;7.53;;
59876;SDS011;45749;51.140;17.184;2022-09-21T09:39:40;11.40;;;7.33;;
59876;SDS011;45749;51.140;17.184;2022-09-21T09:42:55;12.37;;;8.43;;
59876;SDS011;45749;51.140;17.184;2022-09-21T09:48:24;7.90;;;6.22;;
59876;SDS011;45749;51.140;17.184;2022-09-21T09:51:05;8.48;;;6.17;;
59876;SDS011;45749;51.140;17.184;2022-09-21T09:53:38;9.45;;;6.97;;
59876;SDS011;45749;51.140;17.184;2022-09-21T09:56:05;7.65;;;5.95;;
59876;SDS011;45749;51.140;17.184;2022-09-21T09:58:51;7.87;;;5.55;;
59876;SDS011;45749;51.140;17.184;2022-09-21T10:01:42;7.40;;;5.20;;
59876;SDS011;45749;51.140;17.184;2022-09-21T10:04:12;4.33;;;3.37;;
59876;SDS011;45749;51.140;17.184;2022-09-21T10:06:41;4.83;;;3.60;;
59876;SDS011;45749;51.140;17.184;2022-09-21T10:09:28;4.78;;;3.95;;
59876;SDS011;45749;51.140;17.184;2022-09-21T10:12:31;5.65;;;3.83;;
59876;SDS011;45749;51.140;17.184;2022-09-21T10:14:55;6.03;;;3.80;;
59876;SDS011;45749;51.140;17.184;2022-09-21T10:17:22;3.80;;;3.30;;
59876;SDS011;45749;51.140;17.184;2022-09-21T10:19:57;5.08;;;3.80;;
59876;SDS011;45749;51.140;17.184;2022-09-21T10:22:28;4.80;;;3.83;;
59876;SDS011;45749;51.140;17.184;2022-09-21T10:24:54;4.92;;;3.67;;
59876;SDS011;45749;51.140;17.184;2022-09-21T10:27:32;4.45;;;3.77;;
59876;SDS011;45749;51.140;17.184;2022-09-21T10:30:02;4.30;;;3.00;;
59876;SDS011;45749;51.140;17.184;2022-09-21T10:32:28;6.35;;;3.22;;
59876;SDS011;45749;51.140;17.184;2022-09-21T10:37:36;4.25;;;3.40;;
59876;SDS011;45749;51.140;17.184;2022-09-21T10:45:20;7.50;;;3.67;;
59876;SDS011;45749;51.140;17.184;2022-09-21T10:47:51;4.20;;;2.77;;
59876;SDS011;45749;51.140;17.184;2022-09-21T10:55:46;4.15;;;2.75;;
59876;SDS011;45749;51.140;17.184;2022-09-21T10:58:20;3.27;;;2.70;;
59876;SDS011;45749;51.140;17.184;2022-09-21T11:00:47;3.50;;;2.80;;
59876;SDS011;45749;51.140;17.184;2022-09-21T11:06:19;3.58;;;2.98;;
59876;SDS011;45749;51.140;17.184;2022-09-21T11:14:33;2.85;;;2.17;;
59876;SDS011;45749;51.140;17.184;2022-09-21T11:20:13;4.53;;;2.87;;
59876;SDS011;45749;51.140;17.184;2022-09-21T11:22:59;3.95;;;2.75;;
59876;SDS011;45749;51.140;17.184;2022-09-21T11:28:55;5.92;;;2.72;;
59876;SDS011;45749;51.140;17.184;2022-09-21T11:34:28;3.05;;;1.50;;
59876;SDS011;45749;51.140;17.184;2022-09-21T11:37:12;2.95;;;1.45;;
59876;SDS011;45749;51.140;17.184;2022-09-21T11:39:53;4.58;;;1.60;;
59876;SDS011;45749;51.140;17.184;2022-09-21T11:45:07;3.42;;;1.95;;
59876;SDS011;45749;51.140;17.184;2022-09-21T11:48:04;5.00;;;3.33;;
59876;SDS011;45749;51.140;17.184;2022-09-21T11:56:46;1.60;;;1.17;;
59876;SDS011;45749;51.140;17.184;2022-09-21T12:05:19;0.78;;;0.65;;
59876;SDS011;45749;51.140;17.184;2022-09-21T12:07:59;1.90;;;1.30;;
59876;SDS011;45749;51.140;17.184;2022-09-21T12:16:35;1.35;;;0.95;;
59876;SDS011;45749;51.140;17.184;2022-09-21T12:19:28;3.08;;;1.72;;
59876;SDS011;45749;51.140;17.184;2022-09-21T12:24:52;2.45;;;1.35;;
59876;SDS011;45749;51.140;17.184;2022-09-21T12:30:03;1.98;;;1.05;;
59876;SDS011;45749;51.140;17.184;2022-09-21T12:35:36;5.08;;;2.10;;
59876;SDS011;45749;51.140;17.184;2022-09-21T12:43:46;2.70;;;1.10;;
59876;SDS011;45749;51.140;17.184;2022-09-21T12:46:35;3.55;;;1.75;;
59876;SDS011;45749;51.140;17.184;2022-09-21T12:49:11;1.47;;;1.07;;
59876;SDS011;45749;51.140;17.184;2022-09-21T12:51:42;1.80;;;1.12;;
59876;SDS011;45749;51.140;17.184;2022-09-21T12:54:16;1.70;;;1.00;;
59876;SDS011;45749;51.140;17.184;2022-09-21T12:56:58;1.98;;;1.25;;
59876;SDS011;45749;51.140;17.184;2022-09-21T12:59:59;2.33;;;1.17;;
59876;SDS011;45749;51.140;17.184;2022-09-21T13:08:27;1.77;;;1.20;;
59876;SDS011;45749;51.140;17.184;2022-09-21T13:11:01;2.00;;;1.10;;
59876;SDS011;45749;51.140;17.184;2022-09-21T13:16:23;2.50;;;1.02;;
59876;SDS011;45749;51.140;17.184;2022-09-21T13:19:04;3.22;;;1.27;;
59876;SDS011;45749;51.140;17.184;2022-09-21T13:21:43;2.85;;;1.60;;
59876;SDS011;45749;51.140;17.184;2022-09-21T13:24:24;3.33;;;1.00;;
59876;SDS011;45749;51.140;17.184;2022-09-21T13:26:55;1.75;;;1.07;;
59876;SDS011;45749;51.140;17.184;2022-09-21T13:29:35;1.98;;;1.12;;
59876;SDS011;45749;51.140;17.184;2022-09-21T13:34:44;0.78;;;0.60;;
59876;SDS011;45749;51.140;17.184;2022-09-21T13:37:13;2.02;;;1.20;;
59876;SDS011;45749;51.140;17.184;2022-09-21T13:47:46;2.47;;;1.57;;
59876;SDS011;45749;51.140;17.184;2022-09-21T13:50:29;2.72;;;0.90;;
59876;SDS011;45749;51.140;17.184;2022-09-21T13:53:15;2.60;;;1.10;;
59876;SDS011;45749;51.140;17.184;2022-09-21T13:55:54;1.40;;;0.95;;
59876;SDS011;45749;51.140;17.184;2022-09-21T13:58:39;3.80;;;1.40;;
59876;SDS011;45749;51.140;17.184;2022-09-21T14:01:15;4.28;;;1.40;;
59876;SDS011;45749;51.140;17.184;2022-09-21T14:03:54;1.20;;;0.70;;
59876;SDS011;45749;51.140;17.184;2022-09-21T14:06:29;1.30;;;1.00;;
59876;SDS011;45749;51.140;17.184;2022-09-21T14:09:07;1.17;;;0.80;;
59876;SDS011;45749;51.140;17.184;2022-09-21T14:11:58;3.02;;;2.22;;
59876;SDS011;45749;51.140;17.184;2022-09-21T14:14:34;76.72;;;65.45;;
59876;SDS011;45749;51.140;17.184;2022-09-21T14:17:14;111.03;;;100.62;;
59876;SDS011;45749;51.140;17.184;2022-09-21T14:20:23;36.68;;;32.65;;
59876;SDS011;45749;51.140;17.184;2022-09-21T14:23:38;45.98;;;41.05;;
59876;SDS011;45749;51.140;17.184;2022-09-21T14:25:51;11.05;;;9.95;;
59876;SDS011;45749;51.140;17.184;2022-09-21T14:31:28;7.95;;;5.45;;
59876;SDS011;45749;51.140;17.184;2022-09-21T14:33:53;8.20;;;7.42;;
59876;SDS011;45749;51.140;17.184;2022-09-21T14:36:27;9.50;;;8.70;;
59876;SDS011;45749;51.140;17.184;2022-09-21T14:39:03;6.92;;;6.37;;
59876;SDS011;45749;51.140;17.184;2022-09-21T14:44:11;4.60;;;3.92;;
59876;SDS011;45749;51.140;17.184;2022-09-21T15:01:37;3.15;;;2.80;;
59876;SDS011;45749;51.140;17.184;2022-09-21T15:06:56;6.83;;;4.17;;
59876;SDS011;45749;51.140;17.184;2022-09-21T15:13:10;9.28;;;7.85;;
59876;SDS011;45749;51.140;17.184;2022-09-21T15:15:58;107.63;;;83.58;;
59876;SDS011;45749;51.140;17.184;2022-09-21T15:18:44;26.75;;;23.47;;
59876;SDS011;45749;51.140;17.184;2022-09-21T15:21:24;43.75;;;35.85;;
59876;SDS011;45749;51.140;17.184;2022-09-21T15:23:54;12.28;;;10.98;;
59876;SDS011;45749;51.140;17.184;2022-09-21T15:26:27;4.75;;;3.67;;
59876;SDS011;45749;51.140;17.184;2022-09-21T15:28:57;16.50;;;14.60;;
59876;SDS011;45749;51.140;17.184;2022-09-21T15:31:33;26.85;;;24.27;;
59876;SDS011;45749;51.140;17.184;2022-09-21T15:34:05;3.70;;;3.40;;
59876;SDS011;45749;51.140;17.184;2022-09-21T15:36:34;101.92;;;56.83;;
59876;SDS011;45749;51.140;17.184;2022-09-21T15:39:03;44.73;;;26.05;;
59876;SDS011;45749;51.140;17.184;2022-09-21T15:41:42;12.73;;;9.03;;
59876;SDS011;45749;51.140;17.184;2022-09-21T15:46:44;16.32;;;12.28;;
59876;SDS011;45749;51.140;17.184;2022-09-21T15:49:14;3.75;;;2.27;;
59876;SDS011;45749;51.140;17.184;2022-09-21T15:51:44;3.65;;;2.98;;
59876;SDS011;45749;51.140;17.184;2022-09-21T15:57:03;12.40;;;11.10;;
59876;SDS011;45749;51.140;17.184;2022-09-21T15:59:49;10.70;;;9.48;;
59876;SDS011;45749;51.140;17.184;2022-09-21T16:02:18;11.12;;;7.50;;
59876;SDS011;45749;51.140;17.184;2022-09-21T16:04:46;9.23;;;6.05;;
59876;SDS011;45749;51.140;17.184;2022-09-21T16:07:32;22.73;;;11.63;;
59876;SDS011;45749;51.140;17.184;2022-09-21T16:10:02;17.17;;;9.98;;
59876;SDS011;45749;51.140;17.184;2022-09-21T16:12:45;61.65;;;39.85;;
59876;SDS011;45749;51.140;17.184;2022-09-21T16:15:25;131.03;;;82.88;;
59876;SDS011;45749;51.140;17.184;2022-09-21T16:18:00;94.70;;;84.32;;
59876;SDS011;45749;51.140;17.184;2022-09-21T16:20:39;29.70;;;26.57;;
59876;SDS011;45749;51.140;17.184;2022-09-21T16:23:20;5.35;;;4.85;;
59876;SDS011;45749;51.140;17.184;2022-09-21T16:25:55;5.42;;;3.62;;
59876;SDS011;45749;51.140;17.184;2022-09-21T16:28:27;7.85;;;7.15;;
59876;SDS011;45749;51.140;17.184;2022-09-21T16:38:57;9.08;;;7.50;;
59876;SDS011;45749;51.140;17.184;2022-09-21T16:41:34;6.60;;;4.42;;
59876;SDS011;45749;51.140;17.184;2022-09-21T16:44:00;4.72;;;4.05;;
59876;SDS011;45749;51.140;17.184;2022-09-21T16:46:27;9.43;;;8.53;;
59876;SDS011;45749;51.140;17.184;2022-09-21T16:48:56;9.03;;;8.33;;
59876;SDS011;45749;51.140;17.184;2022-09-21T16:51:24;2.90;;;1.98;;
59876;SDS011;45749;51.140;17.184;2022-09-21T16:53:53;3.55;;;2.02;;
59876;SDS011;45749;51.140;17.184;2022-09-21T16:56:20;23.62;;;18.45;;
59876;SDS011;45749;51.140;17.184;2022-09-21T16:58:47;10.45;;;9.65;;
59876;SDS011;45749;51.140;17.184;2022-09-21T17:01:14;22.13;;;15.63;;
59876;SDS011;45749;51.140;17.184;2022-09-21T17:03:45;25.88;;;16.57;;
59876;SDS011;45749;51.140;17.184;2022-09-21T17:06:15;13.62;;;8.28;;
59876;SDS011;45749;51.140;17.184;2022-09-21T17:08:44;9.08;;;5.33;;
59876;SDS011;45749;51.140;17.184;2022-09-21T17:11:13;6.67;;;3.87;;
59876;SDS011;45749;51.140;17.184;2022-09-21T17:13:46;8.13;;;5.42;;
59876;SDS011;45749;51.140;17.184;2022-09-21T17:16:15;37.35;;;16.52;;
59876;SDS011;45749;51.140;17.184;2022-09-21T17:18:46;41.53;;;16.57;;
59876;SDS011;45749;51.140;17.184;2022-09-21T17:21:13;23.77;;;10.58;;
59876;SDS011;45749;51.140;17.184;2022-09-21T17:23:41;19.12;;;9.48;;
59876;SDS011;45749;51.140;17.184;2022-09-21T17:26:14;18.45;;;11.53;;
59876;SDS011;45749;51.140;17.184;2022-09-21T17:28:43;16.23;;;9.40;;
59876;SDS011;45749;51.140;17.184;2022-09-21T17:31:13;13.03;;;9.08;;
59876;SDS011;45749;51.140;17.184;2022-09-21T17:33:43;13.30;;;9.25;;
59876;SDS011;45749;51.140;17.184;2022-09-21T17:36:12;9.95;;;7.60;;
59876;SDS011;45749;51.140;17.184;2022-09-21T17:38:39;16.25;;;14.95;;
59876;SDS011;45749;51.140;17.184;2022-09-21T17:41:27;10.08;;;9.08;;
59876;SDS011;45749;51.140;17.184;2022-09-21T17:47:22;11.10;;;10.08;;
59876;SDS011;45749;51.140;17.184;2022-09-21T17:49:54;9.30;;;8.50;;
59876;SDS011;45749;51.140;17.184;2022-09-21T17:52:37;20.10;;;18.10;;
59876;SDS011;45749;51.140;17.184;2022-09-21T17:55:23;10.58;;;9.55;;
59876;SDS011;45749;51.140;17.184;2022-09-21T18:03:33;9.95;;;8.98;;
59876;SDS011;45749;51.140;17.184;2022-09-21T18:06:03;12.85;;;11.65;;
59876;SDS011;45749;51.140;17.184;2022-09-21T18:08:31;26.87;;;24.07;;
59876;SDS011;45749;51.140;17.184;2022-09-21T18:16:33;47.70;;;38.02;;
59876;SDS011;45749;51.140;17.184;2022-09-21T18:22:17;135.25;;;93.97;;
59876;SDS011;45749;51.140;17.184;2022-09-21T18:25:26;74.30;;;59.35;;
59876;SDS011;45749;51.140;17.184;2022-09-21T18:28:08;36.93;;;31.23;;